Waterman, Pennsylvania
Current Conditions -  °F | °C
As of 12:35 AM on Thursday 27 Nov 2014 (Local Time) from KIDI Reporting Station
Haze Haze  
Wind Chill:   Ceiling: 500
Heat Index:   Visibility: 4mi
Dew Point:   Wind: 0mph
Humidity: 100%   Direction: NA
Pressure: 30.01"   Gusts: NA
Location:  40.5413°N, 79.1838°W
Report Text: KIDI 270535Z AUTO 00000KT 4SM BR OVC005 00/M00 A3001 RMK A01
Loading
Personal Weather Stations






























Interactive Weather Map New forecast layout! Learn more

10-Day Weather Forecast

Advertisements
Track Severe Weather on mobile